<?xml version="1.0" encoding="UTF-8" standalone="no" ?>
<gpx xmlns="http://www.topografix.com/GPX/1/1" xmlns:xsi="http://www.w3.org/2001/XMLSchema-instance" xsi:schemaLocation="http://www.topografix.com/GPX/1/1 http://www.topografix.com/GPX/1/1/gpx.xsd" version="1.1" creator="VisuGPX - https://www.visugpx.com">
  <metadata>
    <name>Chessy-Chatillon- Glay- Jangot</name>
  </metadata>
  <trk>
    <name><![CDATA[Chessy K14 D330]]></name>
    <extensions>
      <line xmlns="http://www.topografix.com/GPX/gpx_style/0/2">
        <color>0000FF</color>
        <width>4</width>
      </line>
    </extensions>
    <trkseg>
      <trkpt lat="45.88562" lon="4.62048">
        <ele>220.94029</ele>
        <time>2025-09-28T07:03:49.213Z</time>
      </trkpt>
      <trkpt lat="45.88558" lon="4.62071">
        <ele>220.94029</ele>
        <time>2025-09-28T07:04:05.732Z</time>
      </trkpt>
      <trkpt lat="45.88556" lon="4.6208">
        <ele>220.94029</ele>
        <time>2025-09-28T07:04:12.136Z</time>
      </trkpt>
      <trkpt lat="45.88567" lon="4.6209">
        <ele>220.94029</ele>
        <time>2025-09-28T07:04:25.408Z</time>
      </trkpt>
      <trkpt lat="45.88581" lon="4.62103">
        <ele>220.94029</ele>
        <time>2025-09-28T07:04:41.786Z</time>
      </trkpt>
      <trkpt lat="45.88579" lon="4.62132">
        <ele>220.94029</ele>
        <time>2025-09-28T07:05:02.412Z</time>
      </trkpt>
      <trkpt lat="45.88582" lon="4.62134">
        <ele>220.94029</ele>
        <time>2025-09-28T07:05:06.402Z</time>
      </trkpt>
      <trkpt lat="45.88589" lon="4.62139">
        <ele>220.94029</ele>
        <time>2025-09-28T07:05:14.555Z</time>
      </trkpt>
      <trkpt lat="45.886" lon="4.62147">
        <ele>220.937126</ele>
        <time>2025-09-28T07:05:26.529Z</time>
      </trkpt>
      <trkpt lat="45.88603" lon="4.62149">
        <ele>220.935271</ele>
        <time>2025-09-28T07:05:30.026Z</time>
      </trkpt>
      <trkpt lat="45.88613" lon="4.62156">
        <ele>220.929546</ele>
        <time>2025-09-28T07:05:40.977Z</time>
      </trkpt>
      <trkpt lat="45.88617" lon="4.6216">
        <ele>220.926667</ele>
        <time>2025-09-28T07:05:46.429Z</time>
      </trkpt>
      <trkpt lat="45.8863" lon="4.62153">
        <ele>220.919667</ele>
        <time>2025-09-28T07:05:59.646Z</time>
      </trkpt>
      <trkpt lat="45.88636" lon="4.62149">
        <ele>220.91621</ele>
        <time>2025-09-28T07:06:06.230Z</time>
      </trkpt>
      <trkpt lat="45.88664" lon="4.62174">
        <ele>220.898465</ele>
        <time>2025-09-28T07:06:39.641Z</time>
      </trkpt>
      <trkpt lat="45.88651" lon="4.62208">
        <ele>220.884093</ele>
        <time>2025-09-28T07:07:06.800Z</time>
      </trkpt>
      <trkpt lat="45.88644" lon="4.62231">
        <ele>220.874646</ele>
        <time>2025-09-28T07:07:24.687Z</time>
      </trkpt>
      <trkpt lat="45.88627" lon="4.62314">
        <ele>220.882264</ele>
        <time>2025-09-28T07:08:25.298Z</time>
      </trkpt>
      <trkpt lat="45.8862" lon="4.6234">
        <ele>221.073381</ele>
        <time>2025-09-28T07:08:45.027Z</time>
      </trkpt>
      <trkpt lat="45.88578" lon="4.62454">
        <ele>221.958567</ele>
        <time>2025-09-28T07:10:15.047Z</time>
      </trkpt>
      <trkpt lat="45.88588" lon="4.62457">
        <ele>222.056367</ele>
        <time>2025-09-28T07:10:25.498Z</time>
      </trkpt>
      <trkpt lat="45.88627" lon="4.62446">
        <ele>222.453511</ele>
        <time>2025-09-28T07:11:09.352Z</time>
      </trkpt>
      <trkpt lat="45.88682" lon="4.62433">
        <ele>224.450714</ele>
        <time>2025-09-28T07:12:10.854Z</time>
      </trkpt>
      <trkpt lat="45.88713" lon="4.62446">
        <ele>226.005257</ele>
        <time>2025-09-28T07:12:46.074Z</time>
      </trkpt>
      <trkpt lat="45.88715" lon="4.62439">
        <ele>226.275223</ele>
        <time>2025-09-28T07:12:52.245Z</time>
      </trkpt>
      <trkpt lat="45.88736" lon="4.62454">
        <ele>227.370781</ele>
        <time>2025-09-28T07:13:18.187Z</time>
      </trkpt>
      <trkpt lat="45.88707" lon="4.6252">
        <ele>229.990198</ele>
        <time>2025-09-28T07:14:23.829Z</time>
      </trkpt>
      <trkpt lat="45.88703" lon="4.62548">
        <ele>230.93071</ele>
        <time>2025-09-28T07:14:48.627Z</time>
      </trkpt>
      <trkpt lat="45.88724" lon="4.6259">
        <ele>234.126021</ele>
        <time>2025-09-28T07:15:34.648Z</time>
      </trkpt>
      <trkpt lat="45.88732" lon="4.62604">
        <ele>235.344091</ele>
        <time>2025-09-28T07:15:50.721Z</time>
      </trkpt>
      <trkpt lat="45.88734" lon="4.62613">
        <ele>236.037241</ele>
        <time>2025-09-28T07:16:00.094Z</time>
      </trkpt>
      <trkpt lat="45.88759" lon="4.62614">
        <ele>238.398403</ele>
        <time>2025-09-28T07:16:32.774Z</time>
      </trkpt>
      <trkpt lat="45.88783" lon="4.62628">
        <ele>240.956045</ele>
        <time>2025-09-28T07:17:09.611Z</time>
      </trkpt>
      <trkpt lat="45.88783" lon="4.62673">
        <ele>243.985882</ele>
        <time>2025-09-28T07:17:55.866Z</time>
      </trkpt>
      <trkpt lat="45.88806" lon="4.62616">
        <ele>248.480811</ele>
        <time>2025-09-28T07:19:00.239Z</time>
      </trkpt>
      <trkpt lat="45.88836" lon="4.62531">
        <ele>250.505229</ele>
        <time>2025-09-28T07:20:21.033Z</time>
      </trkpt>
      <trkpt lat="45.88853" lon="4.62504">
        <ele>251.233374</ele>
        <time>2025-09-28T07:20:49.840Z</time>
      </trkpt>
      <trkpt lat="45.88867" lon="4.62489">
        <ele>251.729501</ele>
        <time>2025-09-28T07:21:08.056Z</time>
      </trkpt>
      <trkpt lat="45.88853" lon="4.62504">
        <ele>252.225627</ele>
        <time>2025-09-28T07:21:26.001Z</time>
      </trkpt>
      <trkpt lat="45.88836" lon="4.62531">
        <ele>252.953772</ele>
        <time>2025-09-28T07:21:53.602Z</time>
      </trkpt>
      <trkpt lat="45.88806" lon="4.62616">
        <ele>256.73994</ele>
        <time>2025-09-28T07:23:02.630Z</time>
      </trkpt>
      <trkpt lat="45.88783" lon="4.62673">
        <ele>260.529206</ele>
        <time>2025-09-28T07:23:53.531Z</time>
      </trkpt>
      <trkpt lat="45.88785" lon="4.62705">
        <ele>262.343776</ele>
        <time>2025-09-28T07:24:21.910Z</time>
      </trkpt>
      <trkpt lat="45.88797" lon="4.62789">
        <ele>267.23786</ele>
        <time>2025-09-28T07:25:58.183Z</time>
      </trkpt>
      <trkpt lat="45.88813" lon="4.62805">
        <ele>269.216426</ele>
        <time>2025-09-28T07:26:36.838Z</time>
      </trkpt>
      <trkpt lat="45.88866" lon="4.62834">
        <ele>278.02563</ele>
        <time>2025-09-28T07:28:30.788Z</time>
      </trkpt>
      <trkpt lat="45.88885" lon="4.62855">
        <ele>281.905145</ele>
        <time>2025-09-28T07:29:18.102Z</time>
      </trkpt>
      <trkpt lat="45.88896" lon="4.62845">
        <ele>283.879783</ele>
        <time>2025-09-28T07:29:40.929Z</time>
      </trkpt>
      <trkpt lat="45.88902" lon="4.62848">
        <ele>284.894288</ele>
        <time>2025-09-28T07:29:52.650Z</time>
      </trkpt>
      <trkpt lat="45.88934" lon="4.62891">
        <ele>291.887551</ele>
        <time>2025-09-28T07:31:04.432Z</time>
      </trkpt>
      <trkpt lat="45.88966" lon="4.62956">
        <ele>298.179932</ele>
        <time>2025-09-28T07:32:17.319Z</time>
      </trkpt>
      <trkpt lat="45.88986" lon="4.62984">
        <ele>299.729107</ele>
        <time>2025-09-28T07:32:51.175Z</time>
      </trkpt>
      <trkpt lat="45.89035" lon="4.63084">
        <ele>304.538758</ele>
        <time>2025-09-28T07:34:31.545Z</time>
      </trkpt>
      <trkpt lat="45.89071" lon="4.63149">
        <ele>306.854141</ele>
        <time>2025-09-28T07:35:36.024Z</time>
      </trkpt>
      <trkpt lat="45.89083" lon="4.63172">
        <ele>306.713202</ele>
        <time>2025-09-28T07:35:56.766Z</time>
      </trkpt>
      <trkpt lat="45.89116" lon="4.63222">
        <ele>306.368291</ele>
        <time>2025-09-28T07:36:45.847Z</time>
      </trkpt>
      <trkpt lat="45.89126" lon="4.63246">
        <ele>306.227599</ele>
        <time>2025-09-28T07:37:06.136Z</time>
      </trkpt>
      <trkpt lat="45.8913" lon="4.63265">
        <ele>306.127593</ele>
        <time>2025-09-28T07:37:20.591Z</time>
      </trkpt>
      <trkpt lat="45.89124" lon="4.63291">
        <ele>305.992629</ele>
        <time>2025-09-28T07:37:40.171Z</time>
      </trkpt>
      <trkpt lat="45.89121" lon="4.63301">
        <ele>305.937378</ele>
        <time>2025-09-28T07:37:48.193Z</time>
      </trkpt>
      <trkpt lat="45.89122" lon="4.63337">
        <ele>305.756424</ele>
        <time>2025-09-28T07:38:14.609Z</time>
      </trkpt>
      <trkpt lat="45.89128" lon="4.6335">
        <ele>305.681119</ele>
        <time>2025-09-28T07:38:25.687Z</time>
      </trkpt>
      <trkpt lat="45.89139" lon="4.6336">
        <ele>305.392273</ele>
        <time>2025-09-28T07:38:38.840Z</time>
      </trkpt>
      <trkpt lat="45.89202" lon="4.63371">
        <ele>303.801192</ele>
        <time>2025-09-28T07:39:47.778Z</time>
      </trkpt>
      <trkpt lat="45.89209" lon="4.63378">
        <ele>303.577348</ele>
        <time>2025-09-28T07:39:57.422Z</time>
      </trkpt>
      <trkpt lat="45.89208" lon="4.63394">
        <ele>303.312108</ele>
        <time>2025-09-28T07:40:08.715Z</time>
      </trkpt>
      <trkpt lat="45.89198" lon="4.63441">
        <ele>302.453381</ele>
        <time>2025-09-28T07:40:44.634Z</time>
      </trkpt>
      <trkpt lat="45.89194" lon="4.63477">
        <ele>301.819831</ele>
        <time>2025-09-28T07:41:10.895Z</time>
      </trkpt>
      <trkpt lat="45.89196" lon="4.63507">
        <ele>301.297205</ele>
        <time>2025-09-28T07:41:32.594Z</time>
      </trkpt>
      <trkpt lat="45.89202" lon="4.63527">
        <ele>301.181552</ele>
        <time>2025-09-28T07:41:48.356Z</time>
      </trkpt>
      <trkpt lat="45.89207" lon="4.63536">
        <ele>301.177033</ele>
        <time>2025-09-28T07:41:56.599Z</time>
      </trkpt>
      <trkpt lat="45.89197" lon="4.6356">
        <ele>301.165811</ele>
        <time>2025-09-28T07:42:16.939Z</time>
      </trkpt>
      <trkpt lat="45.89188" lon="4.6357">
        <ele>301.159574</ele>
        <time>2025-09-28T07:42:28.133Z</time>
      </trkpt>
      <trkpt lat="45.89187" lon="4.63594">
        <ele>301.150097</ele>
        <time>2025-09-28T07:42:44.878Z</time>
      </trkpt>
      <trkpt lat="45.89176" lon="4.6364">
        <ele>301.130804</ele>
        <time>2025-09-28T07:43:19.490Z</time>
      </trkpt>
      <trkpt lat="45.89171" lon="4.63671">
        <ele>301.118252</ele>
        <time>2025-09-28T07:43:42.473Z</time>
      </trkpt>
      <trkpt lat="45.89164" lon="4.63701">
        <ele>301.105713</ele>
        <time>2025-09-28T07:44:05.402Z</time>
      </trkpt>
      <trkpt lat="45.89108" lon="4.63756">
        <ele>300.993031</ele>
        <time>2025-09-28T07:45:14.609Z</time>
      </trkpt>
      <trkpt lat="45.89086" lon="4.63772">
        <ele>300.922828</ele>
        <time>2025-09-28T07:45:39.130Z</time>
      </trkpt>
      <trkpt lat="45.89037" lon="4.63819">
        <ele>300.751802</ele>
        <time>2025-09-28T07:46:39.469Z</time>
      </trkpt>
      <trkpt lat="45.89008" lon="4.63866">
        <ele>300.626413</ele>
        <time>2025-09-28T07:47:23.856Z</time>
      </trkpt>
      <trkpt lat="45.88983" lon="4.63895">
        <ele>300.543675</ele>
        <time>2025-09-28T07:47:56.521Z</time>
      </trkpt>
      <trkpt lat="45.88943" lon="4.63934">
        <ele>300.446585</ele>
        <time>2025-09-28T07:48:44.621Z</time>
      </trkpt>
      <trkpt lat="45.88939" lon="4.6394">
        <ele>300.435153</ele>
        <time>2025-09-28T07:48:50.376Z</time>
      </trkpt>
      <trkpt lat="45.88914" lon="4.63974">
        <ele>300.364901</ele>
        <time>2025-09-28T07:49:25.416Z</time>
      </trkpt>
      <trkpt lat="45.88897" lon="4.63991">
        <ele>300.324443</ele>
        <time>2025-09-28T07:49:45.650Z</time>
      </trkpt>
      <trkpt lat="45.88872" lon="4.64009">
        <ele>300.268121</ele>
        <time>2025-09-28T07:50:13.788Z</time>
      </trkpt>
      <trkpt lat="45.88844" lon="4.64021">
        <ele>300.207791</ele>
        <time>2025-09-28T07:50:43.647Z</time>
      </trkpt>
      <trkpt lat="45.88728" lon="4.64025">
        <ele>298.695215</ele>
        <time>2025-09-28T07:52:42.287Z</time>
      </trkpt>
      <trkpt lat="45.88656" lon="4.64031">
        <ele>297.566733</ele>
        <time>2025-09-28T07:53:57.541Z</time>
      </trkpt>
      <trkpt lat="45.88587" lon="4.64029">
        <ele>294.870899</ele>
        <time>2025-09-28T07:55:09.390Z</time>
      </trkpt>
      <trkpt lat="45.88534" lon="4.64039">
        <ele>292.741498</ele>
        <time>2025-09-28T07:56:07.851Z</time>
      </trkpt>
      <trkpt lat="45.88493" lon="4.64053">
        <ele>291.09612</ele>
        <time>2025-09-28T07:56:54.450Z</time>
      </trkpt>
      <trkpt lat="45.88442" lon="4.64091">
        <ele>287.219454</ele>
        <time>2025-09-28T07:58:00.456Z</time>
      </trkpt>
      <trkpt lat="45.88408" lon="4.64126">
        <ele>284.195</ele>
        <time>2025-09-28T07:58:49.020Z</time>
      </trkpt>
      <trkpt lat="45.88381" lon="4.64168">
        <ele>281.336588</ele>
        <time>2025-09-28T07:59:34.926Z</time>
      </trkpt>
      <trkpt lat="45.88332" lon="4.64229">
        <ele>276.894579</ele>
        <time>2025-09-28T08:00:48.935Z</time>
      </trkpt>
      <trkpt lat="45.88284" lon="4.64269">
        <ele>273.778617</ele>
        <time>2025-09-28T08:01:51.115Z</time>
      </trkpt>
      <trkpt lat="45.88215" lon="4.64316">
        <ele>269.52081</ele>
        <time>2025-09-28T08:03:14.809Z</time>
      </trkpt>
      <trkpt lat="45.88187" lon="4.64341">
        <ele>267.657417</ele>
        <time>2025-09-28T08:03:51.596Z</time>
      </trkpt>
      <trkpt lat="45.88159" lon="4.64378">
        <ele>264.983182</ele>
        <time>2025-09-28T08:04:34.259Z</time>
      </trkpt>
      <trkpt lat="45.88124" lon="4.6441">
        <ele>262.106977</ele>
        <time>2025-09-28T08:05:20.784Z</time>
      </trkpt>
      <trkpt lat="45.88089" lon="4.64451">
        <ele>258.939642</ele>
        <time>2025-09-28T08:06:12.763Z</time>
      </trkpt>
      <trkpt lat="45.88054" lon="4.64486">
        <ele>255.969991</ele>
        <time>2025-09-28T08:07:02.016Z</time>
      </trkpt>
      <trkpt lat="45.88018" lon="4.64516">
        <ele>252.380269</ele>
        <time>2025-09-28T08:07:50.875Z</time>
      </trkpt>
      <trkpt lat="45.87988" lon="4.64539">
        <ele>249.210367</ele>
        <time>2025-09-28T08:08:31.079Z</time>
      </trkpt>
      <trkpt lat="45.87943" lon="4.64562">
        <ele>244.742013</ele>
        <time>2025-09-28T08:09:27.477Z</time>
      </trkpt>
      <trkpt lat="45.87937" lon="4.64565">
        <ele>244.209813</ele>
        <time>2025-09-28T08:09:34.258Z</time>
      </trkpt>
      <trkpt lat="45.87923" lon="4.64569">
        <ele>242.865282</ele>
        <time>2025-09-28T08:09:51.219Z</time>
      </trkpt>
      <trkpt lat="45.87892" lon="4.64588">
        <ele>239.747888</ele>
        <time>2025-09-28T08:10:31.822Z</time>
      </trkpt>
      <trkpt lat="45.87891" lon="4.64587">
        <ele>239.624853</ele>
        <time>2025-09-28T08:10:33.449Z</time>
      </trkpt>
      <trkpt lat="45.87888" lon="4.64584">
        <ele>239.289127</ele>
        <time>2025-09-28T08:10:37.887Z</time>
      </trkpt>
      <trkpt lat="45.87887" lon="4.64571">
        <ele>238.437712</ele>
        <time>2025-09-28T08:10:49.139Z</time>
      </trkpt>
      <trkpt lat="45.87873" lon="4.64564">
        <ele>237.036086</ele>
        <time>2025-09-28T08:11:07.958Z</time>
      </trkpt>
      <trkpt lat="45.87867" lon="4.64554">
        <ele>236.234518</ele>
        <time>2025-09-28T08:11:18.796Z</time>
      </trkpt>
      <trkpt lat="45.87855" lon="4.64535">
        <ele>234.598184</ele>
        <time>2025-09-28T08:11:40.393Z</time>
      </trkpt>
      <trkpt lat="45.87844" lon="4.64551">
        <ele>233.167609</ele>
        <time>2025-09-28T08:11:59.242Z</time>
      </trkpt>
      <trkpt lat="45.87824" lon="4.64595">
        <ele>229.813681</ele>
        <time>2025-09-28T08:12:42.950Z</time>
      </trkpt>
      <trkpt lat="45.87804" lon="4.64572">
        <ele>227.490838</ele>
        <time>2025-09-28T08:13:12.708Z</time>
      </trkpt>
      <trkpt lat="45.87799" lon="4.64553">
        <ele>226.186599</ele>
        <time>2025-09-28T08:13:29.996Z</time>
      </trkpt>
      <trkpt lat="45.87799" lon="4.64553">
        <ele>226.186599</ele>
        <time>2025-09-28T08:13:30.206Z</time>
      </trkpt>
      <trkpt lat="45.87799" lon="4.64553">
        <ele>226.186599</ele>
        <time>2025-09-28T08:13:30.206Z</time>
      </trkpt>
      <trkpt lat="45.87798" lon="4.64555">
        <ele>226.054463</ele>
        <time>2025-09-28T08:13:31.665Z</time>
      </trkpt>
      <trkpt lat="45.87795" lon="4.64562">
        <ele>225.533853</ele>
        <time>2025-09-28T08:13:37.425Z</time>
      </trkpt>
      <trkpt lat="45.8779" lon="4.64567">
        <ele>224.979613</ele>
        <time>2025-09-28T08:13:43.547Z</time>
      </trkpt>
      <trkpt lat="45.87788" lon="4.6457">
        <ele>224.716544</ele>
        <time>2025-09-28T08:13:46.441Z</time>
      </trkpt>
      <trkpt lat="45.87787" lon="4.64571">
        <ele>224.605696</ele>
        <time>2025-09-28T08:13:47.666Z</time>
      </trkpt>
      <trkpt lat="45.87785" lon="4.64574">
        <ele>224.342627</ele>
        <time>2025-09-28T08:13:50.578Z</time>
      </trkpt>
      <trkpt lat="45.87784" lon="4.64577">
        <ele>224.131968</ele>
        <time>2025-09-28T08:13:52.907Z</time>
      </trkpt>
      <trkpt lat="45.87782" lon="4.6458">
        <ele>223.868899</ele>
        <time>2025-09-28T08:13:55.812Z</time>
      </trkpt>
      <trkpt lat="45.8778" lon="4.64578">
        <ele>223.647203</ele>
        <time>2025-09-28T08:13:58.259Z</time>
      </trkpt>
      <trkpt lat="45.87779" lon="4.64576">
        <ele>223.491251</ele>
        <time>2025-09-28T08:13:59.980Z</time>
      </trkpt>
      <trkpt lat="45.8778" lon="4.64575">
        <ele>223.380403</ele>
        <time>2025-09-28T08:14:01.208Z</time>
      </trkpt>
      <trkpt lat="45.87779" lon="4.64572">
        <ele>223.169744</ele>
        <time>2025-09-28T08:14:03.535Z</time>
      </trkpt>
      <trkpt lat="45.87777" lon="4.6457">
        <ele>222.948048</ele>
        <time>2025-09-28T08:14:06.001Z</time>
      </trkpt>
      <trkpt lat="45.87777" lon="4.64565">
        <ele>222.631376</ele>
        <time>2025-09-28T08:14:09.499Z</time>
      </trkpt>
      <trkpt lat="45.87779" lon="4.64554">
        <ele>221.954702</ele>
        <time>2025-09-28T08:14:17.427Z</time>
      </trkpt>
      <trkpt lat="45.87778" lon="4.64553">
        <ele>221.90114</ele>
        <time>2025-09-28T08:14:18.651Z</time>
      </trkpt>
      <trkpt lat="45.87778" lon="4.64541">
        <ele>221.533902</ele>
        <time>2025-09-28T08:14:27.050Z</time>
      </trkpt>
      <trkpt lat="45.87778" lon="4.64539">
        <ele>221.472695</ele>
        <time>2025-09-28T08:14:28.446Z</time>
      </trkpt>
      <trkpt lat="45.87778" lon="4.64537">
        <ele>221.411489</ele>
        <time>2025-09-28T08:14:29.841Z</time>
      </trkpt>
      <trkpt lat="45.87782" lon="4.64528">
        <ele>221.08472</ele>
        <time>2025-09-28T08:14:37.290Z</time>
      </trkpt>
      <trkpt lat="45.87784" lon="4.64523">
        <ele>220.908246</ele>
        <time>2025-09-28T08:14:41.315Z</time>
      </trkpt>
      <trkpt lat="45.87784" lon="4.64521">
        <ele>220.84704</ele>
        <time>2025-09-28T08:14:42.711Z</time>
      </trkpt>
      <trkpt lat="45.87787" lon="4.64516">
        <ele>220.645038</ele>
        <time>2025-09-28T08:14:47.310Z</time>
      </trkpt>
      <trkpt lat="45.87788" lon="4.64515">
        <ele>220.591476</ele>
        <time>2025-09-28T08:14:48.530Z</time>
      </trkpt>
      <trkpt lat="45.87788" lon="4.64507">
        <ele>220.346651</ele>
        <time>2025-09-28T08:14:54.125Z</time>
      </trkpt>
      <trkpt lat="45.87786" lon="4.64504">
        <ele>220.219536</ele>
        <time>2025-09-28T08:14:57.022Z</time>
      </trkpt>
      <trkpt lat="45.87783" lon="4.645">
        <ele>220.039603</ele>
        <time>2025-09-28T08:15:01.122Z</time>
      </trkpt>
      <trkpt lat="45.8778" lon="4.64498">
        <ele>219.894218</ele>
        <time>2025-09-28T08:15:04.435Z</time>
      </trkpt>
      <trkpt lat="45.87776" lon="4.64488">
        <ele>219.541269</ele>
        <time>2025-09-28T08:15:12.490Z</time>
      </trkpt>
      <trkpt lat="45.87776" lon="4.64486">
        <ele>219.480063</ele>
        <time>2025-09-28T08:15:13.884Z</time>
      </trkpt>
      <trkpt lat="45.87771" lon="4.64475">
        <ele>219.078029</ele>
        <time>2025-09-28T08:15:23.041Z</time>
      </trkpt>
      <trkpt lat="45.87765" lon="4.64465">
        <ele>218.674025</ele>
        <time>2025-09-28T08:15:32.245Z</time>
      </trkpt>
      <trkpt lat="45.87762" lon="4.64464">
        <ele>218.538646</ele>
        <time>2025-09-28T08:15:35.328Z</time>
      </trkpt>
      <trkpt lat="45.87759" lon="4.64467">
        <ele>218.377961</ele>
        <time>2025-09-28T08:15:38.998Z</time>
      </trkpt>
      <trkpt lat="45.87752" lon="4.6448">
        <ele>217.875007</ele>
        <time>2025-09-28T08:15:50.453Z</time>
      </trkpt>
      <trkpt lat="45.8775" lon="4.64478">
        <ele>217.767047</ele>
        <time>2025-09-28T08:15:52.942Z</time>
      </trkpt>
      <trkpt lat="45.87738" lon="4.64496">
        <ele>217.00594</ele>
        <time>2025-09-28T08:16:11.622Z</time>
      </trkpt>
      <trkpt lat="45.87728" lon="4.64514">
        <ele>216.273101</ele>
        <time>2025-09-28T08:16:29.532Z</time>
      </trkpt>
      <trkpt lat="45.87713" lon="4.64537">
        <ele>215.310564</ele>
        <time>2025-09-28T08:16:52.582Z</time>
      </trkpt>
      <trkpt lat="45.87704" lon="4.64525">
        <ele>214.785451</ele>
        <time>2025-09-28T08:17:05.291Z</time>
      </trkpt>
      <trkpt lat="45.87694" lon="4.64538">
        <ele>214.18009</ele>
        <time>2025-09-28T08:17:19.822Z</time>
      </trkpt>
      <trkpt lat="45.87687" lon="4.64548">
        <ele>214.007422</ele>
        <time>2025-09-28T08:17:29.789Z</time>
      </trkpt>
      <trkpt lat="45.8767" lon="4.64523">
        <ele>213.735099</ele>
        <time>2025-09-28T08:17:55.356Z</time>
      </trkpt>
      <trkpt lat="45.87666" lon="4.64528">
        <ele>213.669922</ele>
        <time>2025-09-28T08:18:01.376Z</time>
      </trkpt>
      <trkpt lat="45.87663" lon="4.64525">
        <ele>213.633729</ele>
        <time>2025-09-28T08:18:04.657Z</time>
      </trkpt>
      <trkpt lat="45.87659" lon="4.6453">
        <ele>213.568242</ele>
        <time>2025-09-28T08:18:10.705Z</time>
      </trkpt>
      <trkpt lat="45.87655" lon="4.64526">
        <ele>213.516088</ele>
        <time>2025-09-28T08:18:15.415Z</time>
      </trkpt>
      <trkpt lat="45.876" lon="4.64451">
        <ele>212.677555</ele>
        <time>2025-09-28T08:19:32.675Z</time>
      </trkpt>
      <trkpt lat="45.87596" lon="4.64446">
        <ele>212.615551</ele>
        <time>2025-09-28T08:19:38.310Z</time>
      </trkpt>
      <trkpt lat="45.87585" lon="4.64432">
        <ele>212.453622</ele>
        <time>2025-09-28T08:19:53.258Z</time>
      </trkpt>
      <trkpt lat="45.87572" lon="4.64416">
        <ele>212.265067</ele>
        <time>2025-09-28T08:20:10.553Z</time>
      </trkpt>
      <trkpt lat="45.87568" lon="4.64411">
        <ele>212.207949</ele>
        <time>2025-09-28T08:20:15.820Z</time>
      </trkpt>
      <trkpt lat="45.87575" lon="4.64388">
        <ele>212.071894</ele>
        <time>2025-09-28T08:20:33.438Z</time>
      </trkpt>
      <trkpt lat="45.87549" lon="4.64375">
        <ele>211.968149</ele>
        <time>2025-09-28T08:21:01.216Z</time>
      </trkpt>
      <trkpt lat="45.87532" lon="4.64368">
        <ele>211.904</ele>
        <time>2025-09-28T08:21:18.395Z</time>
      </trkpt>
      <trkpt lat="45.8749" lon="4.64353">
        <ele>211.739952</ele>
        <time>2025-09-28T08:22:02.324Z</time>
      </trkpt>
      <trkpt lat="45.8746" lon="4.64344">
        <ele>211.623725</ele>
        <time>2025-09-28T08:22:33.353Z</time>
      </trkpt>
      <trkpt lat="45.87446" lon="4.64341">
        <ele>211.568495</ele>
        <time>2025-09-28T08:22:48.074Z</time>
      </trkpt>
      <trkpt lat="45.87421" lon="4.6434">
        <ele>211.475953</ele>
        <time>2025-09-28T08:23:12.680Z</time>
      </trkpt>
      <trkpt lat="45.87373" lon="4.64343">
        <ele>211.545026</ele>
        <time>2025-09-28T08:24:01.518Z</time>
      </trkpt>
      <trkpt lat="45.87339" lon="4.64184">
        <ele>211.958764</ele>
        <time>2025-09-28T08:25:58.227Z</time>
      </trkpt>
      <trkpt lat="45.87347" lon="4.64152">
        <ele>212.043623</ele>
        <time>2025-09-28T08:26:22.606Z</time>
      </trkpt>
      <trkpt lat="45.87342" lon="4.64111">
        <ele>212.328469</ele>
        <time>2025-09-28T08:26:52.344Z</time>
      </trkpt>
      <trkpt lat="45.87341" lon="4.64101">
        <ele>212.415031</ele>
        <time>2025-09-28T08:26:59.966Z</time>
      </trkpt>
      <trkpt lat="45.87332" lon="4.6405">
        <ele>212.849439</ele>
        <time>2025-09-28T08:27:38.240Z</time>
      </trkpt>
      <trkpt lat="45.87334" lon="4.64035">
        <ele>212.974631</ele>
        <time>2025-09-28T08:27:49.294Z</time>
      </trkpt>
      <trkpt lat="45.87347" lon="4.63997">
        <ele>213.319281</ele>
        <time>2025-09-28T08:28:19.679Z</time>
      </trkpt>
      <trkpt lat="45.87383" lon="4.6395">
        <ele>213.896059</ele>
        <time>2025-09-28T08:29:10.647Z</time>
      </trkpt>
      <trkpt lat="45.87434" lon="4.63898">
        <ele>214.949142</ele>
        <time>2025-09-28T08:30:16.862Z</time>
      </trkpt>
      <trkpt lat="45.87494" lon="4.63792">
        <ele>216.860595</ele>
        <time>2025-09-28T08:31:59.391Z</time>
      </trkpt>
      <trkpt lat="45.8751" lon="4.63775">
        <ele>217.266608</ele>
        <time>2025-09-28T08:32:21.015Z</time>
      </trkpt>
      <trkpt lat="45.87543" lon="4.63751">
        <ele>218.065645</ele>
        <time>2025-09-28T08:33:00.366Z</time>
      </trkpt>
      <trkpt lat="45.87584" lon="4.63734">
        <ele>219.195661</ele>
        <time>2025-09-28T08:33:46.557Z</time>
      </trkpt>
      <trkpt lat="45.87624" lon="4.63716">
        <ele>220.292252</ele>
        <time>2025-09-28T08:34:31.825Z</time>
      </trkpt>
      <trkpt lat="45.87662" lon="4.63688">
        <ele>221.420297</ele>
        <time>2025-09-28T08:35:19.312Z</time>
      </trkpt>
      <trkpt lat="45.87687" lon="4.63654">
        <ele>222.331999</ele>
        <time>2025-09-28T08:35:59.198Z</time>
      </trkpt>
      <trkpt lat="45.87705" lon="4.63623">
        <ele>222.338776</ele>
        <time>2025-09-28T08:36:30.922Z</time>
      </trkpt>
      <trkpt lat="45.87745" lon="4.63534">
        <ele>221.555138</ele>
        <time>2025-09-28T08:37:45.674Z</time>
      </trkpt>
      <trkpt lat="45.87752" lon="4.63517">
        <ele>221.407903</ele>
        <time>2025-09-28T08:38:00.105Z</time>
      </trkpt>
      <trkpt lat="45.87801" lon="4.6356">
        <ele>220.793349</ele>
        <time>2025-09-28T08:39:02.202Z</time>
      </trkpt>
      <trkpt lat="45.87821" lon="4.63565">
        <ele>220.512582</ele>
        <time>2025-09-28T08:39:23.511Z</time>
      </trkpt>
      <trkpt lat="45.8784" lon="4.63564">
        <ele>219.965588</ele>
        <time>2025-09-28T08:39:45.451Z</time>
      </trkpt>
      <trkpt lat="45.87888" lon="4.63572">
        <ele>218.61913</ele>
        <time>2025-09-28T08:40:39.412Z</time>
      </trkpt>
      <trkpt lat="45.87913" lon="4.63562">
        <ele>217.894388</ele>
        <time>2025-09-28T08:41:07.125Z</time>
      </trkpt>
      <trkpt lat="45.87921" lon="4.63556">
        <ele>217.642835</ele>
        <time>2025-09-28T08:41:16.569Z</time>
      </trkpt>
      <trkpt lat="45.87956" lon="4.63559">
        <ele>216.685735</ele>
        <time>2025-09-28T08:41:51.742Z</time>
      </trkpt>
      <trkpt lat="45.87972" lon="4.63555">
        <ele>216.224413</ele>
        <time>2025-09-28T08:42:08.388Z</time>
      </trkpt>
      <trkpt lat="45.87991" lon="4.63545">
        <ele>215.653816</ele>
        <time>2025-09-28T08:42:28.968Z</time>
      </trkpt>
      <trkpt lat="45.88023" lon="4.63507">
        <ele>216.053752</ele>
        <time>2025-09-28T08:43:11.031Z</time>
      </trkpt>
      <trkpt lat="45.88044" lon="4.63494">
        <ele>216.296339</ele>
        <time>2025-09-28T08:43:34.016Z</time>
      </trkpt>
      <trkpt lat="45.88059" lon="4.63496">
        <ele>216.459315</ele>
        <time>2025-09-28T08:43:49.431Z</time>
      </trkpt>
      <trkpt lat="45.88071" lon="4.63483">
        <ele>216.621208</ele>
        <time>2025-09-28T08:44:04.908Z</time>
      </trkpt>
      <trkpt lat="45.88077" lon="4.63446">
        <ele>216.910785</ele>
        <time>2025-09-28T08:44:32.530Z</time>
      </trkpt>
      <trkpt lat="45.88097" lon="4.63377">
        <ele>217.470557</ele>
        <time>2025-09-28T08:45:27.021Z</time>
      </trkpt>
      <trkpt lat="45.88111" lon="4.63301">
        <ele>219.528746</ele>
        <time>2025-09-28T08:46:28.315Z</time>
      </trkpt>
      <trkpt lat="45.88101" lon="4.63269">
        <ele>220.5484</ele>
        <time>2025-09-28T08:46:55.985Z</time>
      </trkpt>
      <trkpt lat="45.88098" lon="4.63235">
        <ele>221.559486</ele>
        <time>2025-09-28T08:47:23.569Z</time>
      </trkpt>
      <trkpt lat="45.88099" lon="4.63225">
        <ele>221.858932</ele>
        <time>2025-09-28T08:47:31.899Z</time>
      </trkpt>
      <trkpt lat="45.88096" lon="4.6315">
        <ele>224.057465</ele>
        <time>2025-09-28T08:48:32.565Z</time>
      </trkpt>
      <trkpt lat="45.88089" lon="4.63122">
        <ele>224.933582</ele>
        <time>2025-09-28T08:48:57.147Z</time>
      </trkpt>
      <trkpt lat="45.8807" lon="4.63067">
        <ele>227.641069</ele>
        <time>2025-09-28T08:49:49.045Z</time>
      </trkpt>
      <trkpt lat="45.88058" lon="4.6302">
        <ele>229.934135</ele>
        <time>2025-09-28T08:50:30.841Z</time>
      </trkpt>
      <trkpt lat="45.88053" lon="4.62986">
        <ele>231.518112</ele>
        <time>2025-09-28T08:50:59.792Z</time>
      </trkpt>
      <trkpt lat="45.88055" lon="4.6297">
        <ele>232.261494</ele>
        <time>2025-09-28T08:51:13.438Z</time>
      </trkpt>
      <trkpt lat="45.88017" lon="4.62958">
        <ele>234.793528</ele>
        <time>2025-09-28T08:52:00.692Z</time>
      </trkpt>
      <trkpt lat="45.87986" lon="4.62955">
        <ele>236.877963</ele>
        <time>2025-09-28T08:52:40.403Z</time>
      </trkpt>
      <trkpt lat="45.87947" lon="4.62938">
        <ele>241.338547</ele>
        <time>2025-09-28T08:53:32.933Z</time>
      </trkpt>
      <trkpt lat="45.87924" lon="4.62913">
        <ele>244.611977</ele>
        <time>2025-09-28T08:54:12.115Z</time>
      </trkpt>
      <trkpt lat="45.87913" lon="4.62893">
        <ele>246.657594</ele>
        <time>2025-09-28T08:54:37.488Z</time>
      </trkpt>
      <trkpt lat="45.87902" lon="4.62882">
        <ele>248.210411</ele>
        <time>2025-09-28T08:54:57.400Z</time>
      </trkpt>
      <trkpt lat="45.87872" lon="4.62872">
        <ele>251.718314</ele>
        <time>2025-09-28T08:55:43.468Z</time>
      </trkpt>
      <trkpt lat="45.87859" lon="4.62863">
        <ele>253.336541</ele>
        <time>2025-09-28T08:56:04.801Z</time>
      </trkpt>
      <trkpt lat="45.878" lon="4.62802">
        <ele>261.40607</ele>
        <time>2025-09-28T08:57:55.161Z</time>
      </trkpt>
      <trkpt lat="45.87772" lon="4.62776">
        <ele>265.000694</ele>
        <time>2025-09-28T08:58:44.691Z</time>
      </trkpt>
      <trkpt lat="45.87716" lon="4.62697">
        <ele>273.502876</ele>
        <time>2025-09-28T09:00:30.416Z</time>
      </trkpt>
      <trkpt lat="45.87704" lon="4.62689">
        <ele>274.937969</ele>
        <time>2025-09-28T09:00:47.404Z</time>
      </trkpt>
      <trkpt lat="45.8772" lon="4.62632">
        <ele>278.970553</ele>
        <time>2025-09-28T09:01:41.868Z</time>
      </trkpt>
      <trkpt lat="45.87754" lon="4.62548">
        <ele>284.599011</ele>
        <time>2025-09-28T09:03:06.941Z</time>
      </trkpt>
      <trkpt lat="45.8777" lon="4.62506">
        <ele>287.390509</ele>
        <time>2025-09-28T09:03:49.809Z</time>
      </trkpt>
      <trkpt lat="45.8777" lon="4.62488">
        <ele>288.404257</ele>
        <time>2025-09-28T09:04:05.614Z</time>
      </trkpt>
      <trkpt lat="45.87765" lon="4.62482">
        <ele>288.939998</ele>
        <time>2025-09-28T09:04:14.008Z</time>
      </trkpt>
      <trkpt lat="45.87681" lon="4.62421">
        <ele>297.247307</ele>
        <time>2025-09-28T09:06:17.254Z</time>
      </trkpt>
      <trkpt lat="45.8767" lon="4.62415">
        <ele>298.296536</ele>
        <time>2025-09-28T09:06:32.531Z</time>
      </trkpt>
      <trkpt lat="45.87589" lon="4.62399">
        <ele>305.731081</ele>
        <time>2025-09-28T09:08:19.827Z</time>
      </trkpt>
      <trkpt lat="45.8754" lon="4.62379">
        <ele>310.834659</ele>
        <time>2025-09-28T09:09:26.023Z</time>
      </trkpt>
      <trkpt lat="45.87525" lon="4.62363">
        <ele>312.86816</ele>
        <time>2025-09-28T09:09:49.875Z</time>
      </trkpt>
      <trkpt lat="45.87508" lon="4.62336">
        <ele>315.692611</ele>
        <time>2025-09-28T09:10:23.271Z</time>
      </trkpt>
      <trkpt lat="45.87491" lon="4.62317">
        <ele>318.093413</ele>
        <time>2025-09-28T09:10:52.142Z</time>
      </trkpt>
      <trkpt lat="45.87497" lon="4.62259">
        <ele>322.527899</ele>
        <time>2025-09-28T09:11:47.370Z</time>
      </trkpt>
      <trkpt lat="45.87514" lon="4.62218">
        <ele>326.200402</ele>
        <time>2025-09-28T09:12:37.638Z</time>
      </trkpt>
      <trkpt lat="45.87524" lon="4.62204">
        <ele>327.770558</ele>
        <time>2025-09-28T09:13:00.384Z</time>
      </trkpt>
      <trkpt lat="45.87543" lon="4.62169">
        <ele>331.993492</ele>
        <time>2025-09-28T09:13:49.912Z</time>
      </trkpt>
      <trkpt lat="45.87562" lon="4.62153">
        <ele>335.134402</ele>
        <time>2025-09-28T09:14:27.261Z</time>
      </trkpt>
      <trkpt lat="45.87576" lon="4.62148">
        <ele>337.195842</ele>
        <time>2025-09-28T09:14:52.044Z</time>
      </trkpt>
      <trkpt lat="45.87586" lon="4.62135">
        <ele>339.055557</ele>
        <time>2025-09-28T09:15:14.593Z</time>
      </trkpt>
      <trkpt lat="45.87592" lon="4.6209">
        <ele>343.592868</ele>
        <time>2025-09-28T09:16:09.917Z</time>
      </trkpt>
      <trkpt lat="45.87589" lon="4.62074">
        <ele>345.232434</ele>
        <time>2025-09-28T09:16:29.658Z</time>
      </trkpt>
      <trkpt lat="45.87585" lon="4.61973">
        <ele>353.997839</ele>
        <time>2025-09-28T09:18:16.269Z</time>
      </trkpt>
      <trkpt lat="45.87575" lon="4.61918">
        <ele>355.813599</ele>
        <time>2025-09-28T09:19:06.967Z</time>
      </trkpt>
      <trkpt lat="45.87572" lon="4.61912">
        <ele>356.060937</ele>
        <time>2025-09-28T09:19:13.421Z</time>
      </trkpt>
      <trkpt lat="45.87566" lon="4.61897">
        <ele>356.616168</ele>
        <time>2025-09-28T09:19:27.828Z</time>
      </trkpt>
      <trkpt lat="45.87533" lon="4.61852">
        <ele>358.704761</ele>
        <time>2025-09-28T09:20:18.808Z</time>
      </trkpt>
      <trkpt lat="45.87513" lon="4.61838">
        <ele>359.717321</ele>
        <time>2025-09-28T09:20:41.806Z</time>
      </trkpt>
      <trkpt lat="45.87499" lon="4.61821">
        <ele>360.561222</ele>
        <time>2025-09-28T09:21:00.413Z</time>
      </trkpt>
      <trkpt lat="45.87486" lon="4.61801">
        <ele>361.468948</ele>
        <time>2025-09-28T09:21:20.356Z</time>
      </trkpt>
      <trkpt lat="45.87474" lon="4.61776">
        <ele>361.305894</ele>
        <time>2025-09-28T09:21:41.583Z</time>
      </trkpt>
      <trkpt lat="45.87463" lon="4.6177">
        <ele>361.00242</ele>
        <time>2025-09-28T09:21:53.717Z</time>
      </trkpt>
      <trkpt lat="45.87454" lon="4.61769">
        <ele>360.761246</ele>
        <time>2025-09-28T09:22:03.426Z</time>
      </trkpt>
      <trkpt lat="45.87418" lon="4.61779">
        <ele>359.811039</ele>
        <time>2025-09-28T09:22:41.935Z</time>
      </trkpt>
      <trkpt lat="45.87344" lon="4.61791">
        <ele>357.883569</ele>
        <time>2025-09-28T09:24:01.531Z</time>
      </trkpt>
      <trkpt lat="45.87342" lon="4.6179">
        <ele>357.826255</ele>
        <time>2025-09-28T09:24:03.927Z</time>
      </trkpt>
      <trkpt lat="45.87312" lon="4.61785">
        <ele>357.040604</ele>
        <time>2025-09-28T09:24:36.519Z</time>
      </trkpt>
      <trkpt lat="45.87268" lon="4.61765">
        <ele>355.412836</ele>
        <time>2025-09-28T09:25:25.977Z</time>
      </trkpt>
      <trkpt lat="45.87223" lon="4.61727">
        <ele>353.552055</ele>
        <time>2025-09-28T09:26:22.717Z</time>
      </trkpt>
      <trkpt lat="45.87223" lon="4.61727">
        <ele>353.552055</ele>
        <time>2025-09-28T09:26:22.730Z</time>
      </trkpt>
      <trkpt lat="45.87233" lon="4.61689">
        <ele>352.529173</ele>
        <time>2025-09-28T09:26:53.845Z</time>
      </trkpt>
      <trkpt lat="45.87234" lon="4.61685">
        <ele>352.420449</ele>
        <time>2025-09-28T09:26:57.143Z</time>
      </trkpt>
      <trkpt lat="45.87173" lon="4.61623">
        <ele>350.452743</ele>
        <time>2025-09-28T09:28:16.845Z</time>
      </trkpt>
      <trkpt lat="45.8716" lon="4.61613">
        <ele>350.330686</ele>
        <time>2025-09-28T09:28:32.135Z</time>
      </trkpt>
      <trkpt lat="45.87149" lon="4.61606">
        <ele>350.233689</ele>
        <time>2025-09-28T09:28:44.306Z</time>
      </trkpt>
      <trkpt lat="45.87104" lon="4.61588">
        <ele>349.840936</ele>
        <time>2025-09-28T09:29:32.727Z</time>
      </trkpt>
      <trkpt lat="45.87065" lon="4.61565">
        <ele>349.48964</ele>
        <time>2025-09-28T09:30:15.375Z</time>
      </trkpt>
      <trkpt lat="45.86991" lon="4.61529">
        <ele>350.602209</ele>
        <time>2025-09-28T09:31:38.264Z</time>
      </trkpt>
      <trkpt lat="45.86979" lon="4.61524">
        <ele>351.037893</ele>
        <time>2025-09-28T09:31:51.506Z</time>
      </trkpt>
      <trkpt lat="45.86979" lon="4.61524">
        <ele>351.037893</ele>
        <time>2025-09-28T09:31:51.538Z</time>
      </trkpt>
      <trkpt lat="45.86979" lon="4.61524">
        <ele>351.037893</ele>
        <time>2025-09-28T09:31:51.571Z</time>
      </trkpt>
      <trkpt lat="45.86991" lon="4.61529">
        <ele>351.473576</ele>
        <time>2025-09-28T09:32:04.924Z</time>
      </trkpt>
      <trkpt lat="45.87021" lon="4.61509">
        <ele>352.677563</ele>
        <time>2025-09-28T09:32:42.302Z</time>
      </trkpt>
      <trkpt lat="45.87063" lon="4.6147">
        <ele>354.484694</ele>
        <time>2025-09-28T09:33:39.971Z</time>
      </trkpt>
      <trkpt lat="45.87119" lon="4.61437">
        <ele>357.346461</ele>
        <time>2025-09-28T09:34:52.009Z</time>
      </trkpt>
      <trkpt lat="45.8714" lon="4.61414">
        <ele>358.98204</ele>
        <time>2025-09-28T09:35:24.318Z</time>
      </trkpt>
      <trkpt lat="45.87149" lon="4.61402">
        <ele>359.730525</ele>
        <time>2025-09-28T09:35:39.269Z</time>
      </trkpt>
      <trkpt lat="45.87157" lon="4.61379">
        <ele>360.815411</ele>
        <time>2025-09-28T09:36:00.862Z</time>
      </trkpt>
      <trkpt lat="45.87166" lon="4.61277">
        <ele>365.214421</ele>
        <time>2025-09-28T09:37:28.584Z</time>
      </trkpt>
      <trkpt lat="45.87187" lon="4.61182">
        <ele>369.037058</ele>
        <time>2025-09-28T09:38:52.685Z</time>
      </trkpt>
      <trkpt lat="45.87207" lon="4.61191">
        <ele>370.159683</ele>
        <time>2025-09-28T09:39:18.408Z</time>
      </trkpt>
      <trkpt lat="45.87207" lon="4.61176">
        <ele>370.710826</ele>
        <time>2025-09-28T09:39:30.995Z</time>
      </trkpt>
      <trkpt lat="45.87196" lon="4.61065">
        <ele>374.819612</ele>
        <time>2025-09-28T09:41:01.976Z</time>
      </trkpt>
      <trkpt lat="45.87226" lon="4.61029">
        <ele>376.768247</ele>
        <time>2025-09-28T09:41:47.544Z</time>
      </trkpt>
      <trkpt lat="45.87236" lon="4.61022">
        <ele>377.247747</ele>
        <time>2025-09-28T09:42:00.019Z</time>
      </trkpt>
      <trkpt lat="45.87248" lon="4.61019">
        <ele>377.813404</ele>
        <time>2025-09-28T09:42:14.708Z</time>
      </trkpt>
      <trkpt lat="45.87285" lon="4.6094">
        <ele>380.752445</ele>
        <time>2025-09-28T09:43:20.573Z</time>
      </trkpt>
      <trkpt lat="45.87319" lon="4.6082">
        <ele>384.819186</ele>
        <time>2025-09-28T09:45:05.719Z</time>
      </trkpt>
      <trkpt lat="45.87327" lon="4.60791">
        <ele>385.822352</ele>
        <time>2025-09-28T09:45:30.772Z</time>
      </trkpt>
      <trkpt lat="45.87412" lon="4.60809">
        <ele>389.811132</ele>
        <time>2025-09-28T09:47:09.821Z</time>
      </trkpt>
      <trkpt lat="45.87444" lon="4.60815">
        <ele>391.277983</ele>
        <time>2025-09-28T09:47:46.593Z</time>
      </trkpt>
      <trkpt lat="45.8746" lon="4.60822">
        <ele>392.058588</ele>
        <time>2025-09-28T09:48:06.503Z</time>
      </trkpt>
      <trkpt lat="45.87492" lon="4.60842">
        <ele>394.072183</ele>
        <time>2025-09-28T09:48:48.058Z</time>
      </trkpt>
      <trkpt lat="45.87497" lon="4.60849">
        <ele>394.499375</ele>
        <time>2025-09-28T09:48:56.431Z</time>
      </trkpt>
      <trkpt lat="45.87501" lon="4.60848">
        <ele>394.735384</ele>
        <time>2025-09-28T09:49:01.187Z</time>
      </trkpt>
      <trkpt lat="45.87547" lon="4.60876">
        <ele>397.832278</ele>
        <time>2025-09-28T09:50:04.529Z</time>
      </trkpt>
      <trkpt lat="45.87568" lon="4.60882">
        <ele>399.114912</ele>
        <time>2025-09-28T09:50:30.569Z</time>
      </trkpt>
      <trkpt lat="45.876" lon="4.60885">
        <ele>401.138915</ele>
        <time>2025-09-28T09:51:11.259Z</time>
      </trkpt>
      <trkpt lat="45.87635" lon="4.60896">
        <ele>403.296365</ele>
        <time>2025-09-28T09:51:53.673Z</time>
      </trkpt>
      <trkpt lat="45.87664" lon="4.60898">
        <ele>403.893423</ele>
        <time>2025-09-28T09:52:27.911Z</time>
      </trkpt>
      <trkpt lat="45.87684" lon="4.60897">
        <ele>404.213483</ele>
        <time>2025-09-28T09:52:50.613Z</time>
      </trkpt>
      <trkpt lat="45.87688" lon="4.60897">
        <ele>404.262655</ele>
        <time>2025-09-28T09:52:53.986Z</time>
      </trkpt>
      <trkpt lat="45.8769" lon="4.60894">
        <ele>396.054695</ele>
        <time>2025-09-28T10:00:27.293Z</time>
      </trkpt>
      <trkpt lat="45.8769" lon="4.60892">
        <ele>395.957061</ele>
        <time>2025-09-28T10:00:28.800Z</time>
      </trkpt>
      <trkpt lat="45.87691" lon="4.6089">
        <ele>395.836855</ele>
        <time>2025-09-28T10:00:30.521Z</time>
      </trkpt>
      <trkpt lat="45.87692" lon="4.60886">
        <ele>395.629378</ele>
        <time>2025-09-28T10:00:33.485Z</time>
      </trkpt>
      <trkpt lat="45.87695" lon="4.60881">
        <ele>395.307153</ele>
        <time>2025-09-28T10:00:38.086Z</time>
      </trkpt>
      <trkpt lat="45.87698" lon="4.60877">
        <ele>395.020132</ele>
        <time>2025-09-28T10:00:42.192Z</time>
      </trkpt>
      <trkpt lat="45.877" lon="4.60875">
        <ele>394.849254</ele>
        <time>2025-09-28T10:00:44.737Z</time>
      </trkpt>
      <trkpt lat="45.877" lon="4.60874">
        <ele>394.800436</ele>
        <time>2025-09-28T10:00:45.437Z</time>
      </trkpt>
      <trkpt lat="45.87702" lon="4.60869">
        <ele>394.518931</ele>
        <time>2025-09-28T10:00:49.460Z</time>
      </trkpt>
      <trkpt lat="45.87705" lon="4.60866">
        <ele>394.262613</ele>
        <time>2025-09-28T10:00:53.120Z</time>
      </trkpt>
      <trkpt lat="45.87706" lon="4.60863">
        <ele>394.100241</ele>
        <time>2025-09-28T10:00:55.441Z</time>
      </trkpt>
      <trkpt lat="45.87707" lon="4.60862">
        <ele>394.014801</ele>
        <time>2025-09-28T10:00:56.663Z</time>
      </trkpt>
      <trkpt lat="45.87708" lon="4.6086">
        <ele>393.894596</ele>
        <time>2025-09-28T10:00:58.493Z</time>
      </trkpt>
      <trkpt lat="45.87709" lon="4.60858">
        <ele>393.774391</ele>
        <time>2025-09-28T10:01:00.225Z</time>
      </trkpt>
      <trkpt lat="45.87711" lon="4.60857">
        <ele>393.625899</ele>
        <time>2025-09-28T10:01:02.351Z</time>
      </trkpt>
      <trkpt lat="45.87711" lon="4.60858">
        <ele>393.577081</ele>
        <time>2025-09-28T10:01:03.049Z</time>
      </trkpt>
      <trkpt lat="45.87715" lon="4.60854">
        <ele>393.235324</ele>
        <time>2025-09-28T10:01:07.931Z</time>
      </trkpt>
      <trkpt lat="45.87716" lon="4.60852">
        <ele>393.115119</ele>
        <time>2025-09-28T10:01:09.648Z</time>
      </trkpt>
      <trkpt lat="45.87718" lon="4.60851">
        <ele>392.966627</ele>
        <time>2025-09-28T10:01:11.773Z</time>
      </trkpt>
      <trkpt lat="45.8772" lon="4.60851">
        <ele>392.826388</ele>
        <time>2025-09-28T10:01:13.885Z</time>
      </trkpt>
      <trkpt lat="45.87721" lon="4.60851">
        <ele>392.756268</ele>
        <time>2025-09-28T10:01:14.900Z</time>
      </trkpt>
      <trkpt lat="45.87722" lon="4.60851">
        <ele>392.686149</ele>
        <time>2025-09-28T10:01:15.908Z</time>
      </trkpt>
      <trkpt lat="45.87723" lon="4.60851">
        <ele>392.616029</ele>
        <time>2025-09-28T10:01:16.914Z</time>
      </trkpt>
      <trkpt lat="45.87728" lon="4.60849">
        <ele>392.196069</ele>
        <time>2025-09-28T10:01:22.116Z</time>
      </trkpt>
      <trkpt lat="45.8773" lon="4.60848">
        <ele>391.942956</ele>
        <time>2025-09-28T10:01:24.238Z</time>
      </trkpt>
      <trkpt lat="45.87731" lon="4.60848">
        <ele>391.823434</ele>
        <time>2025-09-28T10:01:25.240Z</time>
      </trkpt>
      <trkpt lat="45.87732" lon="4.60848">
        <ele>391.703912</ele>
        <time>2025-09-28T10:01:26.244Z</time>
      </trkpt>
      <trkpt lat="45.87734" lon="4.60847">
        <ele>391.4508</ele>
        <time>2025-09-28T10:01:28.375Z</time>
      </trkpt>
      <trkpt lat="45.87735" lon="4.60846">
        <ele>391.305165</ele>
        <time>2025-09-28T10:01:29.742Z</time>
      </trkpt>
      <trkpt lat="45.87737" lon="4.60845">
        <ele>391.052052</ele>
        <time>2025-09-28T10:01:31.881Z</time>
      </trkpt>
      <trkpt lat="45.87741" lon="4.60843">
        <ele>390.545826</ele>
        <time>2025-09-28T10:01:36.131Z</time>
      </trkpt>
      <trkpt lat="45.87744" lon="4.60841">
        <ele>390.150522</ele>
        <time>2025-09-28T10:01:39.446Z</time>
      </trkpt>
      <trkpt lat="45.87747" lon="4.60838">
        <ele>389.713617</ele>
        <time>2025-09-28T10:01:43.118Z</time>
      </trkpt>
      <trkpt lat="45.87747" lon="4.60837">
        <ele>389.630407</ele>
        <time>2025-09-28T10:01:43.822Z</time>
      </trkpt>
      <trkpt lat="45.8775" lon="4.60832">
        <ele>389.081162</ele>
        <time>2025-09-28T10:01:48.546Z</time>
      </trkpt>
      <trkpt lat="45.8775" lon="4.60831">
        <ele>388.997951</ele>
        <time>2025-09-28T10:01:49.245Z</time>
      </trkpt>
      <trkpt lat="45.87752" lon="4.60829">
        <ele>388.706682</ele>
        <time>2025-09-28T10:01:51.690Z</time>
      </trkpt>
      <trkpt lat="45.87752" lon="4.60827">
        <ele>388.540261</ele>
        <time>2025-09-28T10:01:53.085Z</time>
      </trkpt>
      <trkpt lat="45.87752" lon="4.60826">
        <ele>388.45705</ele>
        <time>2025-09-28T10:01:53.784Z</time>
      </trkpt>
      <trkpt lat="45.87754" lon="4.60822">
        <ele>388.047262</ele>
        <time>2025-09-28T10:01:57.225Z</time>
      </trkpt>
      <trkpt lat="45.87755" lon="4.6082">
        <ele>387.842369</ele>
        <time>2025-09-28T10:01:58.952Z</time>
      </trkpt>
      <trkpt lat="45.87755" lon="4.60819">
        <ele>387.759158</ele>
        <time>2025-09-28T10:01:59.659Z</time>
      </trkpt>
      <trkpt lat="45.87757" lon="4.60813">
        <ele>387.205619</ele>
        <time>2025-09-28T10:02:04.343Z</time>
      </trkpt>
      <trkpt lat="45.87757" lon="4.60812">
        <ele>387.122409</ele>
        <time>2025-09-28T10:02:05.041Z</time>
      </trkpt>
      <trkpt lat="45.87757" lon="4.6081">
        <ele>386.955988</ele>
        <time>2025-09-28T10:02:06.439Z</time>
      </trkpt>
      <trkpt lat="45.8776" lon="4.60809">
        <ele>386.587893</ele>
        <time>2025-09-28T10:02:09.528Z</time>
      </trkpt>
      <trkpt lat="45.8776" lon="4.6081">
        <ele>386.504683</ele>
        <time>2025-09-28T10:02:10.226Z</time>
      </trkpt>
      <trkpt lat="45.87764" lon="4.60808">
        <ele>385.998457</ele>
        <time>2025-09-28T10:02:14.486Z</time>
      </trkpt>
      <trkpt lat="45.87768" lon="4.60805">
        <ele>385.459121</ele>
        <time>2025-09-28T10:02:19.057Z</time>
      </trkpt>
      <trkpt lat="45.87773" lon="4.60802">
        <ele>384.811469</ele>
        <time>2025-09-28T10:02:24.496Z</time>
      </trkpt>
      <trkpt lat="45.87775" lon="4.608">
        <ele>384.5202</ele>
        <time>2025-09-28T10:02:26.942Z</time>
      </trkpt>
      <trkpt lat="45.87776" lon="4.60799">
        <ele>384.374565</ele>
        <time>2025-09-28T10:02:28.167Z</time>
      </trkpt>
      <trkpt lat="45.87777" lon="4.60798">
        <ele>384.22893</ele>
        <time>2025-09-28T10:02:29.394Z</time>
      </trkpt>
      <trkpt lat="45.87779" lon="4.60796">
        <ele>383.937661</ele>
        <time>2025-09-28T10:02:31.871Z</time>
      </trkpt>
      <trkpt lat="45.87781" lon="4.60794">
        <ele>383.646392</ele>
        <time>2025-09-28T10:02:34.331Z</time>
      </trkpt>
      <trkpt lat="45.87784" lon="4.60789">
        <ele>383.097149</ele>
        <time>2025-09-28T10:02:38.946Z</time>
      </trkpt>
      <trkpt lat="45.87787" lon="4.60785">
        <ele>382.607913</ele>
        <time>2025-09-28T10:02:43.056Z</time>
      </trkpt>
      <trkpt lat="45.8779" lon="4.6078">
        <ele>382.05867</ele>
        <time>2025-09-28T10:02:47.704Z</time>
      </trkpt>
      <trkpt lat="45.87794" lon="4.60775">
        <ele>381.4249</ele>
        <time>2025-09-28T10:02:53.039Z</time>
      </trkpt>
      <trkpt lat="45.87798" lon="4.6077">
        <ele>380.791129</ele>
        <time>2025-09-28T10:02:58.364Z</time>
      </trkpt>
      <trkpt lat="45.87799" lon="4.60769">
        <ele>380.645494</ele>
        <time>2025-09-28T10:02:59.590Z</time>
      </trkpt>
      <trkpt lat="45.87801" lon="4.60769">
        <ele>380.40645</ele>
        <time>2025-09-28T10:03:01.615Z</time>
      </trkpt>
      <trkpt lat="45.87803" lon="4.6077">
        <ele>380.153338</ele>
        <time>2025-09-28T10:03:03.757Z</time>
      </trkpt>
      <trkpt lat="45.87804" lon="4.60771">
        <ele>380.007704</ele>
        <time>2025-09-28T10:03:04.986Z</time>
      </trkpt>
      <trkpt lat="45.8781" lon="4.60775">
        <ele>379.217096</ele>
        <time>2025-09-28T10:03:11.632Z</time>
      </trkpt>
      <trkpt lat="45.8782" lon="4.60787">
        <ele>377.659668</ele>
        <time>2025-09-28T10:03:24.756Z</time>
      </trkpt>
      <trkpt lat="45.87825" lon="4.60791">
        <ele>376.975622</ele>
        <time>2025-09-28T10:03:30.508Z</time>
      </trkpt>
      <trkpt lat="45.87827" lon="4.60794">
        <ele>376.629997</ele>
        <time>2025-09-28T10:03:33.430Z</time>
      </trkpt>
      <trkpt lat="45.87835" lon="4.60802">
        <ele>375.464924</ele>
        <time>2025-09-28T10:03:43.237Z</time>
      </trkpt>
      <trkpt lat="45.87841" lon="4.6081">
        <ele>374.486456</ele>
        <time>2025-09-28T10:03:51.491Z</time>
      </trkpt>
      <trkpt lat="45.87848" lon="4.6082">
        <ele>373.30647</ele>
        <time>2025-09-28T10:04:01.416Z</time>
      </trkpt>
      <trkpt lat="45.87858" lon="4.60831">
        <ele>371.801038</ele>
        <time>2025-09-28T10:04:14.095Z</time>
      </trkpt>
      <trkpt lat="45.87865" lon="4.60824">
        <ele>370.788167</ele>
        <time>2025-09-28T10:04:22.693Z</time>
      </trkpt>
      <trkpt lat="45.87867" lon="4.60821">
        <ele>370.48597</ele>
        <time>2025-09-28T10:04:25.599Z</time>
      </trkpt>
      <trkpt lat="45.87871" lon="4.60816">
        <ele>369.931832</ele>
        <time>2025-09-28T10:04:30.929Z</time>
      </trkpt>
      <trkpt lat="45.87872" lon="4.60815">
        <ele>369.804496</ele>
        <time>2025-09-28T10:04:32.156Z</time>
      </trkpt>
      <trkpt lat="45.87874" lon="4.60811">
        <ele>369.446201</ele>
        <time>2025-09-28T10:04:35.618Z</time>
      </trkpt>
      <trkpt lat="45.87877" lon="4.60806">
        <ele>368.965972</ele>
        <time>2025-09-28T10:04:40.242Z</time>
      </trkpt>
      <trkpt lat="45.8788" lon="4.60802">
        <ele>368.538209</ele>
        <time>2025-09-28T10:04:44.353Z</time>
      </trkpt>
      <trkpt lat="45.87881" lon="4.60801">
        <ele>368.410874</ele>
        <time>2025-09-28T10:04:45.578Z</time>
      </trkpt>
      <trkpt lat="45.87885" lon="4.60796">
        <ele>367.856736</ele>
        <time>2025-09-28T10:04:50.928Z</time>
      </trkpt>
      <trkpt lat="45.87887" lon="4.60793">
        <ele>367.554539</ele>
        <time>2025-09-28T10:04:53.838Z</time>
      </trkpt>
      <trkpt lat="45.87888" lon="4.60791">
        <ele>367.375392</ele>
        <time>2025-09-28T10:04:55.561Z</time>
      </trkpt>
      <trkpt lat="45.87892" lon="4.60786">
        <ele>366.821255</ele>
        <time>2025-09-28T10:05:00.888Z</time>
      </trkpt>
      <trkpt lat="45.87896" lon="4.6078">
        <ele>366.216862</ele>
        <time>2025-09-28T10:05:06.720Z</time>
      </trkpt>
      <trkpt lat="45.879" lon="4.60775">
        <ele>365.662725</ele>
        <time>2025-09-28T10:05:12.050Z</time>
      </trkpt>
      <trkpt lat="45.87901" lon="4.60774">
        <ele>365.53539</ele>
        <time>2025-09-28T10:05:13.274Z</time>
      </trkpt>
      <trkpt lat="45.87902" lon="4.60773">
        <ele>365.408054</ele>
        <time>2025-09-28T10:05:14.497Z</time>
      </trkpt>
      <trkpt lat="45.87905" lon="4.60769">
        <ele>364.980292</ele>
        <time>2025-09-28T10:05:18.614Z</time>
      </trkpt>
      <trkpt lat="45.87906" lon="4.60768">
        <ele>364.852956</ele>
        <time>2025-09-28T10:05:19.860Z</time>
      </trkpt>
      <trkpt lat="45.8791" lon="4.60763">
        <ele>364.29882</ele>
        <time>2025-09-28T10:05:25.222Z</time>
      </trkpt>
      <trkpt lat="45.87913" lon="4.6076">
        <ele>363.916814</ele>
        <time>2025-09-28T10:05:28.891Z</time>
      </trkpt>
      <trkpt lat="45.87915" lon="4.60757">
        <ele>363.614618</ele>
        <time>2025-09-28T10:05:31.794Z</time>
      </trkpt>
      <trkpt lat="45.8792" lon="4.6075">
        <ele>362.884967</ele>
        <time>2025-09-28T10:05:38.861Z</time>
      </trkpt>
      <trkpt lat="45.87921" lon="4.60749">
        <ele>362.757631</ele>
        <time>2025-09-28T10:05:40.084Z</time>
      </trkpt>
      <trkpt lat="45.87925" lon="4.60744">
        <ele>362.203496</ele>
        <time>2025-09-28T10:05:45.404Z</time>
      </trkpt>
      <trkpt lat="45.87929" lon="4.60738">
        <ele>361.599104</ele>
        <time>2025-09-28T10:05:51.245Z</time>
      </trkpt>
      <trkpt lat="45.8793" lon="4.60737">
        <ele>361.471769</ele>
        <time>2025-09-28T10:05:52.479Z</time>
      </trkpt>
      <trkpt lat="45.87936" lon="4.60728">
        <ele>360.565182</ele>
        <time>2025-09-28T10:06:01.183Z</time>
      </trkpt>
      <trkpt lat="45.87943" lon="4.60719">
        <ele>359.58341</ele>
        <time>2025-09-28T10:06:10.655Z</time>
      </trkpt>
      <trkpt lat="45.87944" lon="4.60717">
        <ele>359.404264</ele>
        <time>2025-09-28T10:06:12.374Z</time>
      </trkpt>
      <trkpt lat="45.87948" lon="4.6071">
        <ele>358.745403</ele>
        <time>2025-09-28T10:06:18.698Z</time>
      </trkpt>
      <trkpt lat="45.87949" lon="4.60708">
        <ele>358.566258</ele>
        <time>2025-09-28T10:06:20.420Z</time>
      </trkpt>
      <trkpt lat="45.8795" lon="4.60707">
        <ele>358.438922</ele>
        <time>2025-09-28T10:06:21.672Z</time>
      </trkpt>
      <trkpt lat="45.87953" lon="4.60699">
        <ele>357.77783</ele>
        <time>2025-09-28T10:06:28.035Z</time>
      </trkpt>
      <trkpt lat="45.87954" lon="4.60697">
        <ele>357.598684</ele>
        <time>2025-09-28T10:06:29.754Z</time>
      </trkpt>
      <trkpt lat="45.87953" lon="4.60693">
        <ele>357.289477</ele>
        <time>2025-09-28T10:06:32.720Z</time>
      </trkpt>
      <trkpt lat="45.8795" lon="4.60684">
        <ele>356.563513</ele>
        <time>2025-09-28T10:06:39.727Z</time>
      </trkpt>
      <trkpt lat="45.87948" lon="4.6068">
        <ele>356.205221</ele>
        <time>2025-09-28T10:06:43.164Z</time>
      </trkpt>
      <trkpt lat="45.87942" lon="4.60671">
        <ele>355.298635</ele>
        <time>2025-09-28T10:06:51.863Z</time>
      </trkpt>
      <trkpt lat="45.8794" lon="4.60667">
        <ele>354.940343</ele>
        <time>2025-09-28T10:06:55.338Z</time>
      </trkpt>
      <trkpt lat="45.87931" lon="4.60656">
        <ele>353.705403</ele>
        <time>2025-09-28T10:07:07.180Z</time>
      </trkpt>
      <trkpt lat="45.8793" lon="4.60657">
        <ele>353.58967</ele>
        <time>2025-09-28T10:07:08.362Z</time>
      </trkpt>
      <trkpt lat="45.87905" lon="4.6062">
        <ele>351.469214</ele>
        <time>2025-09-28T10:07:49.289Z</time>
      </trkpt>
      <trkpt lat="45.87879" lon="4.60586">
        <ele>350.536698</ele>
        <time>2025-09-28T10:08:27.582Z</time>
      </trkpt>
      <trkpt lat="45.87857" lon="4.60568">
        <ele>349.857106</ele>
        <time>2025-09-28T10:08:54.932Z</time>
      </trkpt>
      <trkpt lat="45.87835" lon="4.60553">
        <ele>349.200122</ele>
        <time>2025-09-28T10:09:20.271Z</time>
      </trkpt>
      <trkpt lat="45.87732" lon="4.605">
        <ele>347.312432</ele>
        <time>2025-09-28T10:11:10.689Z</time>
      </trkpt>
      <trkpt lat="45.87704" lon="4.60481">
        <ele>347.375653</ele>
        <time>2025-09-28T10:11:42.262Z</time>
      </trkpt>
      <trkpt lat="45.87677" lon="4.60466">
        <ele>347.436061</ele>
        <time>2025-09-28T10:12:12.164Z</time>
      </trkpt>
      <trkpt lat="45.87646" lon="4.60455">
        <ele>347.499903</ele>
        <time>2025-09-28T10:12:43.465Z</time>
      </trkpt>
      <trkpt lat="45.87638" lon="4.60442">
        <ele>347.526056</ele>
        <time>2025-09-28T10:12:56.264Z</time>
      </trkpt>
      <trkpt lat="45.87625" lon="4.60445">
        <ele>347.551701</ele>
        <time>2025-09-28T10:13:08.774Z</time>
      </trkpt>
      <trkpt lat="45.87607" lon="4.60443">
        <ele>347.58987</ele>
        <time>2025-09-28T10:13:27.400Z</time>
      </trkpt>
      <trkpt lat="45.87594" lon="4.60439">
        <ele>347.552588</ele>
        <time>2025-09-28T10:13:40.492Z</time>
      </trkpt>
      <trkpt lat="45.87553" lon="4.60425">
        <ele>346.949125</ele>
        <time>2025-09-28T10:14:22.981Z</time>
      </trkpt>
      <trkpt lat="45.87466" lon="4.60387">
        <ele>345.638382</ele>
        <time>2025-09-28T10:15:57.105Z</time>
      </trkpt>
      <trkpt lat="45.87435" lon="4.60384">
        <ele>345.194558</ele>
        <time>2025-09-28T10:16:29.878Z</time>
      </trkpt>
      <trkpt lat="45.87436" lon="4.60371">
        <ele>345.062828</ele>
        <time>2025-09-28T10:16:39.725Z</time>
      </trkpt>
      <trkpt lat="45.87446" lon="4.60324">
        <ele>344.052107</ele>
        <time>2025-09-28T10:17:16.256Z</time>
      </trkpt>
      <trkpt lat="45.87463" lon="4.60244">
        <ele>342.266839</ele>
        <time>2025-09-28T10:18:17.667Z</time>
      </trkpt>
      <trkpt lat="45.87476" lon="4.60186">
        <ele>340.965174</ele>
        <time>2025-09-28T10:19:02.035Z</time>
      </trkpt>
      <trkpt lat="45.87476" lon="4.60174">
        <ele>340.70784</ele>
        <time>2025-09-28T10:19:10.924Z</time>
      </trkpt>
      <trkpt lat="45.87513" lon="4.60192">
        <ele>339.508315</ele>
        <time>2025-09-28T10:19:52.279Z</time>
      </trkpt>
      <trkpt lat="45.87534" lon="4.60198">
        <ele>337.484701</ele>
        <time>2025-09-28T10:20:15.305Z</time>
      </trkpt>
      <trkpt lat="45.87542" lon="4.60198">
        <ele>336.623825</ele>
        <time>2025-09-28T10:20:24.954Z</time>
      </trkpt>
      <trkpt lat="45.8756" lon="4.60199">
        <ele>334.951615</ele>
        <time>2025-09-28T10:20:44.165Z</time>
      </trkpt>
      <trkpt lat="45.87586" lon="4.60181">
        <ele>332.033307</ele>
        <time>2025-09-28T10:21:18.384Z</time>
      </trkpt>
      <trkpt lat="45.87598" lon="4.6017">
        <ele>330.708534</ele>
        <time>2025-09-28T10:21:34.269Z</time>
      </trkpt>
      <trkpt lat="45.87644" lon="4.60142">
        <ele>325.81856</ele>
        <time>2025-09-28T10:22:35.557Z</time>
      </trkpt>
      <trkpt lat="45.87651" lon="4.60135">
        <ele>324.925344</ele>
        <time>2025-09-28T10:22:47.303Z</time>
      </trkpt>
      <trkpt lat="45.87684" lon="4.60118">
        <ele>321.370401</ele>
        <time>2025-09-28T10:23:31.171Z</time>
      </trkpt>
      <trkpt lat="45.87775" lon="4.60043">
        <ele>303.966428</ele>
        <time>2025-09-28T10:25:51.919Z</time>
      </trkpt>
      <trkpt lat="45.87808" lon="4.6003">
        <ele>298.176353</ele>
        <time>2025-09-28T10:26:39.961Z</time>
      </trkpt>
      <trkpt lat="45.87901" lon="4.60005">
        <ele>286.284137</ele>
        <time>2025-09-28T10:28:43.579Z</time>
      </trkpt>
      <trkpt lat="45.87953" lon="4.60005">
        <ele>281.185273</ele>
        <time>2025-09-28T10:29:45.285Z</time>
      </trkpt>
      <trkpt lat="45.87968" lon="4.59995">
        <ele>279.544546</ele>
        <time>2025-09-28T10:30:04.382Z</time>
      </trkpt>
      <trkpt lat="45.87991" lon="4.59993">
        <ele>277.202432</ele>
        <time>2025-09-28T10:30:30.746Z</time>
      </trkpt>
      <trkpt lat="45.88" lon="4.5999">
        <ele>276.303485</ele>
        <time>2025-09-28T10:30:40.974Z</time>
      </trkpt>
      <trkpt lat="45.88" lon="4.5999">
        <ele>276.303485</ele>
        <time>2025-09-28T10:30:41.163Z</time>
      </trkpt>
      <trkpt lat="45.88" lon="4.5999">
        <ele>276.303485</ele>
        <time>2025-09-28T10:30:41.163Z</time>
      </trkpt>
      <trkpt lat="45.88075" lon="4.60052">
        <ele>274.225914</ele>
        <time>2025-09-28T10:32:07.644Z</time>
      </trkpt>
      <trkpt lat="45.8815" lon="4.60114">
        <ele>274.303844</ele>
        <time>2025-09-28T10:33:34.194Z</time>
      </trkpt>
      <trkpt lat="45.88205" lon="4.60151">
        <ele>275.423933</ele>
        <time>2025-09-28T10:34:44.055Z</time>
      </trkpt>
      <trkpt lat="45.88216" lon="4.60166">
        <ele>275.929249</ele>
        <time>2025-09-28T10:35:01.871Z</time>
      </trkpt>
      <trkpt lat="45.88226" lon="4.6024">
        <ele>277.699755</ele>
        <time>2025-09-28T10:36:04.718Z</time>
      </trkpt>
      <trkpt lat="45.88221" lon="4.60249">
        <ele>277.965625</ele>
        <time>2025-09-28T10:36:14.037Z</time>
      </trkpt>
      <trkpt lat="45.88206" lon="4.60255">
        <ele>278.476127</ele>
        <time>2025-09-28T10:36:31.599Z</time>
      </trkpt>
      <trkpt lat="45.8819" lon="4.60266">
        <ele>279.086013</ele>
        <time>2025-09-28T10:36:52.125Z</time>
      </trkpt>
      <trkpt lat="45.88162" lon="4.60317">
        <ele>280.140767</ele>
        <time>2025-09-28T10:37:40.113Z</time>
      </trkpt>
      <trkpt lat="45.8816" lon="4.60327">
        <ele>279.929522</ele>
        <time>2025-09-28T10:37:47.216Z</time>
      </trkpt>
      <trkpt lat="45.88162" lon="4.60341">
        <ele>279.609992</ele>
        <time>2025-09-28T10:37:58.071Z</time>
      </trkpt>
      <trkpt lat="45.88164" lon="4.60349">
        <ele>279.447823</ele>
        <time>2025-09-28T10:38:03.639Z</time>
      </trkpt>
      <trkpt lat="45.88177" lon="4.60367">
        <ele>278.892801</ele>
        <time>2025-09-28T10:38:23.121Z</time>
      </trkpt>
      <trkpt lat="45.88219" lon="4.60387">
        <ele>277.564194</ele>
        <time>2025-09-28T10:39:11.393Z</time>
      </trkpt>
      <trkpt lat="45.8823" lon="4.60389">
        <ele>277.236947</ele>
        <time>2025-09-28T10:39:23.449Z</time>
      </trkpt>
      <trkpt lat="45.88311" lon="4.60384">
        <ele>274.885313</ele>
        <time>2025-09-28T10:40:52.804Z</time>
      </trkpt>
      <trkpt lat="45.88325" lon="4.6039">
        <ele>274.680787</ele>
        <time>2025-09-28T10:41:08.497Z</time>
      </trkpt>
      <trkpt lat="45.88355" lon="4.60412">
        <ele>274.204303</ele>
        <time>2025-09-28T10:41:43.738Z</time>
      </trkpt>
      <trkpt lat="45.88379" lon="4.60413">
        <ele>273.865886</ele>
        <time>2025-09-28T10:42:08.032Z</time>
      </trkpt>
      <trkpt lat="45.88412" lon="4.60387">
        <ele>273.325246</ele>
        <time>2025-09-28T10:42:46.746Z</time>
      </trkpt>
      <trkpt lat="45.88437" lon="4.60442">
        <ele>272.679736</ele>
        <time>2025-09-28T10:43:32.336Z</time>
      </trkpt>
      <trkpt lat="45.88483" lon="4.60547">
        <ele>271.335154</ele>
        <time>2025-09-28T10:44:59.520Z</time>
      </trkpt>
      <trkpt lat="45.88501" lon="4.60587">
        <ele>270.802123</ele>
        <time>2025-09-28T10:45:33.724Z</time>
      </trkpt>
      <trkpt lat="45.88551" lon="4.60693">
        <ele>269.297878</ele>
        <time>2025-09-28T10:47:08.079Z</time>
      </trkpt>
      <trkpt lat="45.88568" lon="4.6073">
        <ele>268.498217</ele>
        <time>2025-09-28T10:47:41.971Z</time>
      </trkpt>
      <trkpt lat="45.88579" lon="4.60766">
        <ele>267.796817</ele>
        <time>2025-09-28T10:48:11.845Z</time>
      </trkpt>
      <trkpt lat="45.88581" lon="4.60793">
        <ele>267.322483</ele>
        <time>2025-09-28T10:48:31.934Z</time>
      </trkpt>
      <trkpt lat="45.8858" lon="4.6081">
        <ele>267.013429</ele>
        <time>2025-09-28T10:48:45.010Z</time>
      </trkpt>
      <trkpt lat="45.88576" lon="4.60824">
        <ele>266.741119</ele>
        <time>2025-09-28T10:48:56.547Z</time>
      </trkpt>
      <trkpt lat="45.88534" lon="4.6087">
        <ele>265.397653</ele>
        <time>2025-09-28T10:49:51.762Z</time>
      </trkpt>
      <trkpt lat="45.8847" lon="4.60927">
        <ele>265.212186</ele>
        <time>2025-09-28T10:51:10.608Z</time>
      </trkpt>
      <trkpt lat="45.88396" lon="4.6098">
        <ele>265.614028</ele>
        <time>2025-09-28T10:52:40.981Z</time>
      </trkpt>
      <trkpt lat="45.88385" lon="4.60993">
        <ele>265.685477</ele>
        <time>2025-09-28T10:52:55.969Z</time>
      </trkpt>
      <trkpt lat="45.88376" lon="4.61012">
        <ele>265.761004</ele>
        <time>2025-09-28T10:53:11.697Z</time>
      </trkpt>
      <trkpt lat="45.88372" lon="4.61034">
        <ele>265.277969</ele>
        <time>2025-09-28T10:53:28.284Z</time>
      </trkpt>
      <trkpt lat="45.88374" lon="4.6104">
        <ele>264.861371</ele>
        <time>2025-09-28T10:53:33.733Z</time>
      </trkpt>
      <trkpt lat="45.8839" lon="4.61056">
        <ele>263.315516</ele>
        <time>2025-09-28T10:53:54.504Z</time>
      </trkpt>
      <trkpt lat="45.88416" lon="4.61091">
        <ele>260.447878</ele>
        <time>2025-09-28T10:54:34.812Z</time>
      </trkpt>
      <trkpt lat="45.88427" lon="4.61124">
        <ele>258.363261</ele>
        <time>2025-09-28T10:55:05.500Z</time>
      </trkpt>
      <trkpt lat="45.8847" lon="4.61232">
        <ele>251.394747</ele>
        <time>2025-09-28T10:56:51.621Z</time>
      </trkpt>
      <trkpt lat="45.88487" lon="4.61315">
        <ele>246.345329</ele>
        <time>2025-09-28T10:58:03.899Z</time>
      </trkpt>
      <trkpt lat="45.88494" lon="4.61363">
        <ele>243.477033</ele>
        <time>2025-09-28T10:58:44.246Z</time>
      </trkpt>
      <trkpt lat="45.88497" lon="4.61418">
        <ele>240.202309</ele>
        <time>2025-09-28T10:59:29.041Z</time>
      </trkpt>
      <trkpt lat="45.88488" lon="4.61461">
        <ele>237.554253</ele>
        <time>2025-09-28T11:00:04.571Z</time>
      </trkpt>
      <trkpt lat="45.88495" lon="4.61495">
        <ele>235.899867</ele>
        <time>2025-09-28T11:00:32.007Z</time>
      </trkpt>
      <trkpt lat="45.88442" lon="4.61582">
        <ele>233.37376</ele>
        <time>2025-09-28T11:01:59.963Z</time>
      </trkpt>
      <trkpt lat="45.8839" lon="4.61706">
        <ele>230.344291</ele>
        <time>2025-09-28T11:03:43.978Z</time>
      </trkpt>
      <trkpt lat="45.88373" lon="4.61756">
        <ele>229.642443</ele>
        <time>2025-09-28T11:04:23.348Z</time>
      </trkpt>
      <trkpt lat="45.88349" lon="4.61854">
        <ele>228.340987</ele>
        <time>2025-09-28T11:05:37.414Z</time>
      </trkpt>
      <trkpt lat="45.88339" lon="4.61905">
        <ele>227.688026</ele>
        <time>2025-09-28T11:06:15.698Z</time>
      </trkpt>
      <trkpt lat="45.88329" lon="4.61932">
        <ele>227.304711</ele>
        <time>2025-09-28T11:06:38.188Z</time>
      </trkpt>
      <trkpt lat="45.8837" lon="4.6194">
        <ele>226.056609</ele>
        <time>2025-09-28T11:07:22.378Z</time>
      </trkpt>
      <trkpt lat="45.88388" lon="4.61943">
        <ele>225.508138</ele>
        <time>2025-09-28T11:07:41.645Z</time>
      </trkpt>
      <trkpt lat="45.88392" lon="4.61945">
        <ele>225.375406</ele>
        <time>2025-09-28T11:07:46.338Z</time>
      </trkpt>
      <trkpt lat="45.88407" lon="4.61952">
        <ele>224.877234</ele>
        <time>2025-09-28T11:08:03.915Z</time>
      </trkpt>
      <trkpt lat="45.88483" lon="4.62017">
        <ele>222.130845</ele>
        <time>2025-09-28T11:09:38.645Z</time>
      </trkpt>
      <trkpt lat="45.88487" lon="4.62022">
        <ele>221.962302</ele>
        <time>2025-09-28T11:09:44.330Z</time>
      </trkpt>
      <trkpt lat="45.88493" lon="4.62023">
        <ele>221.78241</ele>
        <time>2025-09-28T11:09:50.355Z</time>
      </trkpt>
      <trkpt lat="45.88496" lon="4.6203">
        <ele>221.709117</ele>
        <time>2025-09-28T11:09:56.367Z</time>
      </trkpt>
      <trkpt lat="45.88504" lon="4.62034">
        <ele>221.709117</ele>
        <time>2025-09-28T11:10:05.203Z</time>
      </trkpt>
      <trkpt lat="45.8855" lon="4.62074">
        <ele>221.709117</ele>
        <time>2025-09-28T11:10:59.309Z</time>
      </trkpt>
      <trkpt lat="45.88556" lon="4.6208">
        <ele>221.709117</ele>
        <time>2025-09-28T11:11:06.985Z</time>
      </trkpt>
      <trkpt lat="45.88558" lon="4.62071">
        <ele>221.709117</ele>
        <time>2025-09-28T11:11:13.407Z</time>
      </trkpt>
      <trkpt lat="45.88562" lon="4.62048">
        <ele>221.709117</ele>
        <time>2025-09-28T11:11:29.934Z</time>
      </trkpt>
      <trkpt lat="45.88562" lon="4.62047">
        <ele>221.709117</ele>
        <time>2025-09-28T11:11:31.157Z</time>
      </trkpt>
    </trkseg>
  </trk>
</gpx>